createdAt,value
2022-10-24T00:02:48.920Z,14.96
2022-10-24T00:05:53.210Z,14.99
2022-10-24T00:08:58.546Z,15.02
2022-10-24T00:12:01.110Z,15.12
2022-10-24T00:15:05.338Z,15.17
2022-10-24T00:18:08.017Z,15.12
2022-10-24T00:21:12.211Z,14.93
2022-10-24T00:24:15.086Z,14.96
2022-10-24T00:27:17.926Z,15.12
2022-10-24T00:30:20.806Z,14.99
2022-10-24T00:33:23.670Z,14.95
2022-10-24T00:36:28.969Z,14.94
2022-10-24T00:39:31.740Z,14.89
2022-10-24T00:42:34.393Z,14.99
2022-10-24T00:45:43.241Z,14.93
2022-10-24T00:48:49.421Z,14.88
2022-10-24T00:51:57.459Z,14.87
2022-10-24T00:55:02.451Z,14.91
2022-10-24T00:58:07.593Z,14.90
2022-10-24T01:01:10.580Z,15.01
2022-10-24T01:04:14.472Z,14.96
2022-10-24T01:07:30.274Z,14.99
2022-10-24T01:10:43.597Z,14.88
2022-10-24T01:13:58.697Z,14.83
2022-10-24T01:17:08.566Z,14.91
2022-10-24T01:20:26.491Z,14.90
2022-10-24T01:24:20.606Z,15.01
2022-10-24T01:27:42.088Z,15.01
2022-10-24T01:30:51.373Z,14.93
2022-10-24T01:34:00.040Z,15.08
2022-10-24T01:37:05.625Z,15.01
2022-10-24T01:40:13.854Z,14.93
2022-10-24T01:43:18.620Z,14.90
2022-10-24T01:46:27.941Z,14.99
2022-10-24T01:49:35.073Z,15.07
2022-10-24T01:52:41.610Z,15.04
2022-10-24T01:55:46.670Z,14.92
2022-10-24T01:58:49.319Z,14.94
2022-10-24T02:01:55.712Z,14.90
2022-10-24T02:05:06.025Z,14.86
2022-10-24T02:08:12.083Z,14.79
2022-10-24T02:11:15.165Z,14.71
2022-10-24T02:14:21.536Z,14.66
2022-10-24T02:17:25.770Z,14.65
2022-10-24T02:20:32.033Z,14.63
2022-10-24T02:23:39.662Z,14.59
2022-10-24T02:26:49.813Z,14.65
2022-10-24T02:29:57.523Z,14.72
2022-10-24T02:33:01.874Z,14.61
2022-10-24T02:36:07.066Z,14.49
2022-10-24T02:39:11.618Z,14.52
2022-10-24T02:42:15.544Z,14.40
2022-10-24T02:45:19.420Z,14.54
2022-10-24T02:48:29.095Z,14.49
2022-10-24T02:51:35.004Z,14.44
2022-10-24T02:54:37.659Z,14.41
2022-10-24T02:57:40.429Z,14.38
2022-10-24T03:00:43.021Z,14.38
2022-10-24T03:03:47.556Z,14.35
2022-10-24T03:06:50.284Z,14.33
2022-10-24T03:09:52.855Z,14.35
2022-10-24T03:12:55.572Z,14.32
2022-10-24T03:15:58.150Z,14.29
2022-10-24T03:19:02.269Z,14.23
2022-10-24T03:22:05.229Z,14.18
2022-10-24T03:25:08.357Z,14.10
2022-10-24T03:28:11.090Z,14.08
2022-10-24T03:31:13.673Z,14.06
2022-10-24T03:34:17.769Z,14.04
2022-10-24T03:37:20.582Z,14.01
2022-10-24T03:40:23.139Z,14.01
2022-10-24T03:43:25.951Z,14.03
2022-10-24T03:46:28.524Z,14.02
2022-10-24T03:49:33.444Z,13.96
2022-10-24T03:52:36.217Z,13.92
2022-10-24T03:55:38.823Z,13.88
2022-10-24T03:58:41.508Z,13.91
2022-10-24T04:01:44.231Z,13.85
2022-10-24T04:04:48.468Z,13.80
2022-10-24T04:07:51.054Z,13.76
2022-10-24T04:10:53.693Z,13.71
2022-10-24T04:13:56.480Z,13.70
2022-10-24T04:16:59.177Z,13.69
2022-10-24T04:20:03.156Z,13.64
2022-10-24T04:23:05.854Z,13.65
2022-10-24T04:26:08.504Z,13.60
2022-10-24T04:29:11.121Z,13.60
2022-10-24T04:32:13.684Z,13.56
2022-10-24T04:35:17.923Z,13.54
2022-10-24T04:38:20.728Z,13.48
2022-10-24T04:41:23.370Z,13.42
2022-10-24T04:44:26.076Z,13.38
2022-10-24T04:47:29.515Z,13.47
2022-10-24T04:50:33.831Z,13.42
2022-10-24T04:53:36.669Z,13.45
2022-10-24T04:56:39.233Z,13.41
2022-10-24T04:59:41.811Z,13.43
2022-10-24T05:02:44.465Z,13.45
2022-10-24T05:05:49.099Z,13.43
2022-10-24T05:08:51.830Z,13.43
2022-10-24T05:11:56.431Z,13.45
2022-10-24T05:14:59.197Z,13.49
2022-10-24T05:18:02.154Z,13.58
2022-10-24T05:21:06.684Z,13.71
2022-10-24T05:24:09.660Z,13.65
2022-10-24T05:27:12.229Z,13.81
2022-10-24T05:30:15.534Z,13.77
2022-10-24T05:33:18.143Z,13.83
2022-10-24T05:36:22.129Z,13.78
2022-10-24T05:39:24.856Z,13.80
2022-10-24T05:42:27.500Z,13.85
2022-10-24T05:45:30.167Z,13.93
2022-10-24T05:48:32.748Z,13.88
2022-10-24T05:51:36.721Z,13.86
2022-10-24T05:54:55.325Z,13.88
2022-10-24T05:58:02.138Z,13.92
2022-10-24T06:01:05.020Z,13.98
2022-10-24T06:04:10.017Z,13.91
2022-10-24T06:07:17.107Z,13.86
2022-10-24T06:10:19.931Z,13.82
2022-10-24T06:13:22.525Z,13.84
2022-10-24T06:16:27.674Z,13.86
2022-10-24T06:19:30.343Z,13.91
2022-10-24T06:22:34.385Z,13.95
2022-10-24T06:25:37.132Z,13.95
2022-10-24T06:28:39.963Z,13.94
2022-10-24T06:31:42.681Z,13.97
2022-10-24T06:34:45.546Z,14.01
2022-10-24T06:37:49.780Z,14.05
2022-10-24T06:40:52.572Z,14.10
2022-10-24T06:43:56.384Z,14.16
2022-10-24T06:46:59.056Z,14.22
2022-10-24T06:50:01.838Z,14.30
2022-10-24T06:53:05.718Z,14.32
2022-10-24T06:56:09.312Z,14.36
2022-10-24T06:59:13.154Z,14.58
2022-10-24T07:02:17.413Z,14.59
2022-10-24T07:05:20.341Z,14.61
2022-10-24T07:08:24.286Z,14.66
2022-10-24T07:11:28.220Z,14.65
2022-10-24T07:14:30.801Z,14.75
2022-10-24T07:17:39.923Z,14.88
2022-10-24T07:20:42.605Z,15.13
2022-10-24T07:23:47.193Z,15.11
2022-10-24T07:26:49.917Z,15.13
2022-10-24T07:29:52.634Z,15.16
2022-10-24T07:32:55.858Z,15.26
2022-10-24T07:35:59.057Z,15.36
2022-10-24T07:39:03.055Z,15.50
2022-10-24T07:42:05.813Z,15.65
2022-10-24T07:45:09.688Z,15.67
2022-10-24T07:48:12.781Z,15.61
2022-10-24T07:51:16.250Z,15.78
2022-10-24T07:54:20.141Z,15.89
2022-10-24T07:57:23.140Z,16.01
2022-10-24T08:00:25.931Z,16.01
2022-10-24T08:03:28.529Z,16.07
2022-10-24T08:06:32.894Z,16.29
2022-10-24T08:09:39.869Z,16.30
2022-10-24T08:12:42.856Z,16.44
2022-10-24T08:15:45.751Z,16.52
2022-10-24T08:18:49.209Z,16.72
2022-10-24T08:21:52.933Z,16.73
2022-10-24T08:24:56.844Z,16.72
2022-10-24T08:28:00.228Z,16.90
2022-10-24T08:31:06.805Z,16.99
2022-10-24T08:34:13.416Z,17.14
2022-10-24T08:37:16.118Z,17.25
2022-10-24T08:40:21.584Z,17.32
2022-10-24T08:43:25.314Z,17.30
2022-10-24T08:46:39.873Z,17.40
2022-10-24T08:49:50.307Z,17.45
2022-10-24T08:52:59.174Z,17.45
2022-10-24T08:56:03.256Z,17.64
2022-10-24T08:59:06.811Z,17.71
2022-10-24T09:02:19.649Z,17.78
2022-10-24T09:05:25.800Z,17.81
2022-10-24T09:08:34.871Z,17.93
2022-10-24T09:11:47.411Z,18.14
2022-10-24T09:14:55.624Z,18.18
2022-10-24T09:17:59.871Z,18.37
2022-10-24T09:21:03.552Z,18.42
2022-10-24T09:24:07.742Z,18.47
2022-10-24T09:27:17.470Z,18.67
2022-10-24T09:30:28.566Z,18.53
2022-10-24T09:33:39.494Z,18.57
2022-10-24T09:36:42.461Z,18.58
2022-10-24T09:39:45.027Z,18.66
2022-10-24T09:42:56.095Z,18.79
2022-10-24T09:46:03.692Z,18.89
2022-10-24T09:49:20.079Z,19.01
2022-10-24T09:52:25.396Z,19.03
2022-10-24T09:55:31.101Z,18.98
2022-10-24T09:58:35.753Z,18.93
2022-10-24T10:01:38.566Z,18.81
2022-10-24T10:04:41.875Z,19.02
2022-10-24T10:07:48.392Z,18.98
2022-10-24T10:11:04.536Z,19.05
2022-10-24T10:14:23.366Z,19.15
2022-10-24T10:17:28.415Z,19.21
2022-10-24T10:20:35.998Z,19.30
2022-10-24T10:23:41.164Z,19.45
2022-10-24T10:26:45.512Z,19.39
2022-10-24T10:29:49.573Z,19.32
2022-10-24T10:33:06.711Z,19.45
2022-10-24T10:36:17.477Z,19.35
2022-10-24T10:39:35.932Z,19.36
2022-10-24T10:42:46.959Z,19.42
2022-10-24T10:46:05.742Z,19.46
2022-10-24T10:49:17.251Z,19.40
2022-10-24T10:52:25.656Z,19.33
2022-10-24T10:55:36.026Z,19.26
2022-10-24T10:58:46.927Z,19.29
2022-10-24T11:01:59.488Z,19.27
2022-10-24T11:05:17.477Z,19.30
2022-10-24T11:08:45.879Z,19.40
2022-10-24T11:11:52.970Z,19.53
2022-10-24T11:15:01.455Z,19.53
2022-10-24T11:18:12.356Z,19.61
2022-10-24T11:21:17.820Z,19.52
2022-10-24T11:24:24.464Z,19.49
2022-10-24T11:27:33.952Z,19.58
2022-10-24T11:30:44.174Z,19.59
2022-10-24T11:33:56.494Z,19.75
2022-10-24T11:37:03.951Z,19.64
2022-10-24T11:40:13.414Z,19.71
2022-10-24T11:43:23.642Z,19.59
2022-10-24T11:46:33.914Z,19.56
2022-10-24T11:49:42.042Z,19.61
2022-10-24T11:52:49.896Z,19.68
2022-10-24T11:55:57.889Z,19.68
2022-10-24T11:59:02.943Z,19.59
2022-10-24T12:02:51.166Z,19.93
2022-10-24T12:06:21.552Z,19.68
2022-10-24T12:09:37.959Z,19.76
2022-10-24T12:13:03.411Z,19.81
2022-10-24T12:16:17.102Z,19.93
2022-10-24T12:19:22.882Z,19.96
2022-10-24T12:22:35.844Z,20.18
2022-10-24T12:25:40.321Z,20.17
2022-10-24T12:28:44.525Z,20.04
2022-10-24T12:31:47.416Z,19.91
2022-10-24T12:35:25.387Z,19.99
2022-10-24T12:39:07.783Z,19.96
2022-10-24T12:42:17.266Z,20.01
2022-10-24T12:45:31.002Z,20.02
2022-10-24T12:48:37.057Z,19.99
2022-10-24T12:51:41.142Z,20.08
2022-10-24T12:54:45.479Z,20.10
2022-10-24T12:57:49.503Z,20.17
2022-10-24T13:00:57.670Z,20.33
2022-10-24T13:04:26.199Z,20.41
2022-10-24T13:07:50.640Z,20.42
2022-10-24T13:11:11.547Z,20.47
2022-10-24T13:14:28.883Z,20.38
2022-10-24T13:17:40.840Z,20.43
2022-10-24T13:20:45.971Z,20.44
2022-10-24T13:23:49.829Z,20.51
2022-10-24T13:27:23.592Z,20.52
2022-10-24T13:30:28.634Z,20.31
2022-10-24T13:33:45.470Z,20.31
2022-10-24T13:36:51.555Z,20.30
2022-10-24T13:40:01.788Z,20.30
2022-10-24T13:43:07.970Z,20.38
2022-10-24T13:46:13.390Z,20.20
2022-10-24T13:49:23.506Z,20.28
2022-10-24T13:52:33.790Z,19.98
2022-10-24T13:55:40.173Z,20.20
2022-10-24T13:58:45.272Z,20.17
2022-10-24T14:01:49.441Z,20.25
2022-10-24T14:04:56.164Z,20.17
2022-10-24T14:08:02.112Z,19.97
2022-10-24T14:11:19.747Z,19.93
2022-10-24T14:14:30.039Z,19.95
2022-10-24T14:17:35.857Z,19.94
2022-10-24T14:20:39.038Z,19.95
2022-10-24T14:23:42.700Z,19.85
2022-10-24T14:26:46.674Z,19.93
2022-10-24T14:29:55.434Z,19.86
2022-10-24T14:33:07.779Z,19.79
2022-10-24T14:36:18.624Z,19.82
2022-10-24T14:39:24.665Z,19.69
2022-10-24T14:42:28.344Z,19.66
2022-10-24T14:45:32.207Z,19.71
2022-10-24T14:48:37.313Z,19.64
2022-10-24T14:51:41.903Z,19.66
2022-10-24T14:54:54.087Z,19.56
2022-10-24T14:57:57.266Z,19.57
2022-10-24T15:01:00.917Z,19.41
2022-10-24T15:04:06.779Z,19.53
2022-10-24T15:07:23.072Z,19.45
2022-10-24T15:10:30.205Z,19.31
2022-10-24T15:13:34.805Z,19.24
2022-10-24T15:16:39.800Z,19.22
2022-10-24T15:19:45.593Z,19.22
2022-10-24T15:22:50.449Z,19.06
2022-10-24T15:26:02.644Z,19.06
2022-10-24T15:29:08.791Z,19.08
2022-10-24T15:32:12.254Z,19.18
2022-10-24T15:35:17.875Z,18.98
2022-10-24T15:38:20.489Z,18.93
2022-10-24T15:41:23.755Z,18.86
2022-10-24T15:44:29.487Z,18.86
2022-10-24T15:47:32.030Z,18.85
2022-10-24T15:50:36.579Z,18.81
2022-10-24T15:53:39.121Z,18.77
2022-10-24T15:56:41.763Z,18.79
2022-10-24T15:59:44.306Z,18.87
2022-10-24T16:02:49.069Z,18.80
2022-10-24T16:05:55.465Z,18.68
2022-10-24T16:08:58.135Z,18.61
2022-10-24T16:12:00.729Z,18.49
2022-10-24T16:15:03.324Z,18.44
2022-10-24T16:18:06.663Z,18.38
2022-10-24T16:21:17.204Z,18.49
2022-10-24T16:24:22.185Z,18.53
2022-10-24T16:27:24.875Z,18.41
2022-10-24T16:30:29.536Z,18.29
2022-10-24T16:33:32.648Z,18.45
2022-10-24T16:36:36.605Z,18.36
2022-10-24T16:39:39.270Z,18.22
2022-10-24T16:42:42.087Z,18.24
2022-10-24T16:45:47.017Z,18.44
2022-10-24T16:48:50.693Z,18.25
2022-10-24T16:51:54.723Z,18.21
2022-10-24T16:54:57.297Z,18.22
2022-10-24T16:58:00.373Z,18.10
2022-10-24T17:01:04.537Z,18.00
2022-10-24T17:04:07.223Z,18.03
2022-10-24T17:07:11.416Z,18.08
2022-10-24T17:10:14.390Z,17.98
2022-10-24T17:13:16.990Z,18.02
2022-10-24T17:16:20.785Z,18.17
2022-10-24T17:19:23.473Z,18.00
2022-10-24T17:22:27.936Z,18.03
2022-10-24T17:25:30.729Z,18.07
2022-10-24T17:28:33.777Z,17.92
2022-10-24T17:31:36.590Z,18.04
2022-10-24T17:34:40.069Z,18.05
2022-10-24T17:37:53.398Z,17.88
2022-10-24T17:40:58.851Z,18.00
2022-10-24T17:44:02.282Z,18.16
2022-10-24T17:47:05.406Z,17.92
2022-10-24T17:50:09.103Z,17.87
2022-10-24T17:53:14.262Z,17.93
2022-10-24T17:56:19.484Z,17.91
2022-10-24T17:59:24.599Z,17.69
2022-10-24T18:02:28.604Z,17.67
2022-10-24T18:05:34.198Z,17.69
2022-10-24T18:08:38.309Z,17.50
2022-10-24T18:11:41.188Z,17.56
2022-10-24T18:14:43.902Z,17.43
2022-10-24T18:17:47.483Z,17.50
2022-10-24T18:20:50.471Z,17.67
2022-10-24T18:23:54.914Z,17.43
2022-10-24T18:26:57.892Z,17.32
2022-10-24T18:30:00.603Z,17.35
2022-10-24T18:33:03.200Z,17.34
2022-10-24T18:36:08.217Z,17.41
2022-10-24T18:39:13.308Z,17.23
2022-10-24T18:42:26.489Z,17.30
2022-10-24T18:45:30.051Z,17.29
2022-10-24T18:48:33.594Z,17.33
2022-10-24T18:51:42.260Z,17.46
2022-10-24T18:54:54.875Z,17.25
2022-10-24T18:57:58.660Z,17.15
2022-10-24T19:01:01.540Z,17.10
2022-10-24T19:04:13.672Z,17.19
2022-10-24T19:07:16.924Z,17.22
2022-10-24T19:10:24.751Z,17.10
2022-10-24T19:13:28.211Z,17.12
2022-10-24T19:16:32.496Z,16.98
2022-10-24T19:19:35.795Z,17.00
2022-10-24T19:22:38.553Z,17.01
2022-10-24T19:25:42.669Z,16.90
2022-10-24T19:28:45.401Z,16.99
2022-10-24T19:31:48.091Z,17.01
2022-10-24T19:34:51.329Z,17.04
2022-10-24T19:37:54.027Z,17.01
2022-10-24T19:40:58.422Z,17.02
2022-10-24T19:44:01.131Z,17.03
2022-10-24T19:47:03.685Z,16.94
2022-10-24T19:50:07.291Z,16.85
2022-10-24T19:56:24.113Z,17.03
2022-10-24T19:59:33.763Z,16.97
2022-10-24T20:02:36.396Z,16.90
2022-10-24T20:05:39.475Z,16.99
2022-10-24T20:08:42.658Z,16.83
2022-10-24T20:11:46.580Z,16.84
2022-10-24T20:14:49.273Z,16.78
2022-10-24T20:17:51.816Z,16.79
2022-10-24T20:20:54.983Z,16.75
2022-10-24T20:23:57.646Z,16.72
2022-10-24T20:27:01.882Z,16.64
2022-10-24T20:30:05.037Z,16.70
2022-10-24T20:33:07.647Z,16.62
2022-10-24T20:36:10.931Z,16.53
2022-10-24T20:39:21.271Z,16.55
2022-10-24T20:42:25.362Z,16.58
2022-10-24T20:45:28.203Z,16.48
2022-10-24T20:48:30.820Z,16.41
2022-10-24T20:51:33.736Z,16.38
2022-10-24T20:54:36.629Z,16.37
2022-10-24T20:57:41.038Z,16.38
2022-10-24T21:00:43.901Z,16.36
2022-10-24T21:03:46.444Z,16.36
2022-10-24T21:06:49.294Z,16.32
2022-10-24T21:09:52.476Z,16.35
2022-10-24T21:12:56.437Z,16.17
2022-10-24T21:15:59.151Z,16.12
2022-10-24T21:19:01.975Z,16.17
2022-10-24T21:22:04.680Z,16.19
2022-10-24T21:25:08.158Z,16.16
2022-10-24T21:28:12.069Z,16.23
2022-10-24T21:31:16.674Z,16.15
2022-10-24T21:34:19.760Z,16.11
2022-10-24T21:37:22.366Z,16.06
2022-10-24T21:40:25.251Z,16.07
2022-10-24T21:43:29.883Z,15.93
2022-10-24T21:46:33.392Z,15.88
2022-10-24T21:49:35.943Z,15.85
2022-10-24T21:52:38.712Z,15.84
2022-10-24T21:55:41.368Z,15.94
2022-10-24T21:58:48.784Z,15.87
2022-10-24T22:01:53.114Z,15.84
2022-10-24T22:04:55.900Z,15.83
2022-10-24T22:07:58.642Z,15.86
2022-10-24T22:11:03.686Z,15.86
2022-10-24T22:14:07.713Z,15.97
2022-10-24T22:17:10.446Z,15.98
2022-10-24T22:20:13.054Z,16.18
2022-10-24T22:23:16.212Z,16.02
2022-10-24T22:26:19.393Z,15.94
2022-10-24T22:29:25.117Z,15.93
2022-10-24T22:32:28.292Z,15.92
2022-10-24T22:35:31.606Z,15.88
2022-10-24T22:38:34.942Z,15.86
2022-10-24T22:41:38.130Z,15.79
2022-10-24T22:44:42.656Z,15.76
2022-10-24T22:48:00.966Z,15.73
2022-10-24T22:51:03.814Z,15.71
2022-10-24T22:54:11.177Z,15.73
2022-10-24T22:57:14.502Z,15.67
2022-10-24T23:00:20.118Z,15.59
2022-10-24T23:03:33.599Z,15.58
2022-10-24T23:06:43.405Z,15.50
2022-10-24T23:09:46.103Z,15.45
2022-10-24T23:12:50.416Z,15.40
2022-10-24T23:15:58.229Z,15.39
2022-10-24T23:19:01.718Z,15.29
2022-10-24T23:22:16.289Z,15.25
2022-10-24T23:25:21.523Z,15.19
2022-10-24T23:28:36.272Z,15.11
2022-10-24T23:31:40.990Z,15.01
2022-10-24T23:34:44.215Z,14.98
2022-10-24T23:37:48.541Z,14.95
2022-10-24T23:40:52.279Z,14.93
2022-10-24T23:43:55.502Z,14.87
2022-10-24T23:47:06.390Z,14.81
2022-10-24T23:50:16.349Z,14.74
2022-10-24T23:53:26.827Z,14.71
2022-10-24T23:56:30.628Z,14.65
2022-10-24T23:59:33.254Z,14.60
